Time;durP1;ratioP1;P1;durP2;ratioP2;P2;SDS_P1;SDS_P2;PMS_P1;PMS_P2;Temp;Humidity;BMP_temperature;BMP_pressure;BME280_temperature;BME280_humidity;BME280_pressure;Samples;Min_cycle;Max_cycle;Signal;HPM_P1;HPM_P2
2024/01/04 00:00:46;;;;;;;1.75;1.3;;;;;;;23.96;39.04688;93828.72;;;;
2024/01/04 00:01:46;;;;;;;1.75;1.3;;;;;;;23.96;39.04688;93828.72;;;;
2024/01/04 00:02:47;;;;;;;1.75;1.3;;;;;;;23.96;39.04688;93828.72;;;;
2024/01/04 00:03:47;;;;;;;1.75;1.3;;;;;;;23.96;39.04688;93828.72;;;;
2024/01/04 00:04:48;;;;;;;1.75;1.3;;;;;;;23.96;39.04688;93828.72;;;;
2024/01/04 00:05:49;;;;;;;1.75;1.3;;;;;;;23.96;39.04688;93828.72;;;;
2024/01/04 00:06:50;;;;;;;1.75;1.3;;;;;;;23.96;39.04688;93828.72;;;;
2024/01/04 00:07:50;;;;;;;1.75;1.3;;;;;;;23.96;39.04688;93828.72;;;;
2024/01/04 00:08:51;;;;;;;1.75;1.3;;;;;;;23.96;39.04688;93828.72;;;;
2024/01/04 00:09:51;;;;;;;2.1;1.3;;;;;;;23.9;39.08691;93827.75;;;;
2024/01/04 00:10:52;;;;;;;2.1;1.3;;;;;;;23.9;39.08691;93827.75;;;;
2024/01/04 00:11:52;;;;;;;2.1;1.3;;;;;;;23.9;39.08691;93827.75;;;;
2024/01/04 00:12:53;;;;;;;2.1;1.3;;;;;;;23.9;39.08691;93827.75;;;;
2024/01/04 00:13:53;;;;;;;2.1;1.3;;;;;;;23.9;39.08691;93827.75;;;;
2024/01/04 00:14:54;;;;;;;2.1;1.3;;;;;;;23.9;39.08691;93827.75;;;;
2024/01/04 00:15:55;;;;;;;2.1;1.3;;;;;;;23.9;39.08691;93827.75;;;;
2024/01/04 00:16:55;;;;;;;2.1;1.3;;;;;;;23.9;39.08691;93827.75;;;;
2024/01/04 00:17:56;;;;;;;2.1;1.3;;;;;;;23.9;39.08691;93827.75;;;;
2024/01/04 00:18:56;;;;;;;2.1;1.3;;;;;;;23.9;39.08691;93827.75;;;;
2024/01/04 00:19:56;;;;;;;2.35;1.35;;;;;;;24.05;38.81934;93827.34;;;;
2024/01/04 00:20:58;;;;;;;2.35;1.35;;;;;;;24.05;38.81934;93827.34;;;;
2024/01/04 00:21:58;;;;;;;2.35;1.35;;;;;;;24.05;38.81934;93827.34;;;;
2024/01/04 00:22:59;;;;;;;2.35;1.35;;;;;;;24.05;38.81934;93827.34;;;;
2024/01/04 00:24:01;;;;;;;2.35;1.35;;;;;;;24.05;38.81934;93827.34;;;;
2024/01/04 00:25:01;;;;;;;2.35;1.35;;;;;;;24.05;38.81934;93827.34;;;;
2024/01/04 00:26:02;;;;;;;2.35;1.35;;;;;;;24.05;38.81934;93827.34;;;;
2024/01/04 00:27:03;;;;;;;2.35;1.35;;;;;;;24.05;38.81934;93827.34;;;;
2024/01/04 00:28:04;;;;;;;2.35;1.35;;;;;;;24.05;38.81934;93827.34;;;;
2024/01/04 00:29:05;;;;;;;2.35;1.35;;;;;;;24.05;38.81934;93827.34;;;;
2024/01/04 00:30:06;;;;;;;2.35;1.35;;;;;;;24.05;38.81934;93827.34;;;;
2024/01/04 00:31:07;;;;;;;2.25;1.4;;;;;;;23.92;39.02148;93845.76;;;;
2024/01/04 00:32:08;;;;;;;2.25;1.4;;;;;;;23.92;39.02148;93845.76;;;;
2024/01/04 00:33:08;;;;;;;2.25;1.4;;;;;;;23.92;39.02148;93845.76;;;;
2024/01/04 00:34:09;;;;;;;2.25;1.4;;;;;;;23.92;39.02148;93845.76;;;;
2024/01/04 00:35:09;;;;;;;2.25;1.4;;;;;;;23.92;39.02148;93845.76;;;;
2024/01/04 00:36:10;;;;;;;2.25;1.4;;;;;;;23.92;39.02148;93845.76;;;;
2024/01/04 00:37:11;;;;;;;2.25;1.4;;;;;;;23.92;39.02148;93845.76;;;;
2024/01/04 00:38:11;;;;;;;2.25;1.4;;;;;;;23.92;39.02148;93845.76;;;;
2024/01/04 00:39:12;;;;;;;2.25;1.4;;;;;;;23.92;39.02148;93845.76;;;;
2024/01/04 00:40:13;;;;;;;2.25;1.4;;;;;;;23.92;39.02148;93845.76;;;;
2024/01/04 00:41:13;;;;;;;1.4;1.25;;;;;;;23.87;39.0625;93828.41;;;;
2024/01/04 00:42:15;;;;;;;1.4;1.25;;;;;;;23.87;39.0625;93828.41;;;;
2024/01/04 00:43:15;;;;;;;1.4;1.25;;;;;;;23.87;39.0625;93828.41;;;;
2024/01/04 00:44:15;;;;;;;1.4;1.25;;;;;;;23.87;39.0625;93828.41;;;;
2024/01/04 00:45:16;;;;;;;1.4;1.25;;;;;;;23.87;39.0625;93828.41;;;;
2024/01/04 00:46:16;;;;;;;1.4;1.25;;;;;;;23.87;39.0625;93828.41;;;;
2024/01/04 00:47:17;;;;;;;1.4;1.25;;;;;;;23.87;39.0625;93828.41;;;;
2024/01/04 00:48:17;;;;;;;1.4;1.25;;;;;;;23.87;39.0625;93828.41;;;;
2024/01/04 00:49:18;;;;;;;1.4;1.25;;;;;;;23.87;39.0625;93828.41;;;;
2024/01/04 00:50:19;;;;;;;1.4;1.25;;;;;;;23.87;39.0625;93828.41;;;;
2024/01/04 00:51:19;;;;;;;1.4;1.25;;;;;;;23.87;39.0625;93828.41;;;;
2024/01/04 00:52:20;;;;;;;1.35;1.25;;;;;;;23.82;39.11328;93834.56;;;;
2024/01/04 00:53:20;;;;;;;1.35;1.25;;;;;;;23.82;39.11328;93834.56;;;;
2024/01/04 00:54:21;;;;;;;1.35;1.25;;;;;;;23.82;39.11328;93834.56;;;;
2024/01/04 00:55:21;;;;;;;1.35;1.25;;;;;;;23.82;39.11328;93834.56;;;;
2024/01/04 00:56:22;;;;;;;1.35;1.25;;;;;;;23.82;39.11328;93834.56;;;;
2024/01/04 00:57:22;;;;;;;1.35;1.25;;;;;;;23.82;39.11328;93834.56;;;;
2024/01/04 00:58:22;;;;;;;1.35;1.25;;;;;;;23.82;39.11328;93834.56;;;;
2024/01/04 00:59:23;;;;;;;1.35;1.25;;;;;;;23.82;39.11328;93834.56;;;;
2024/01/04 01:00:23;;;;;;;1.35;1.25;;;;;;;23.82;39.11328;93834.56;;;;
2024/01/04 01:01:25;;;;;;;1.35;1.25;;;;;;;23.82;39.11328;93834.56;;;;
2024/01/04 01:02:25;;;;;;;1.8;1.2;;;;;;;23.81;39.10254;93861.16;;;;
2024/01/04 01:03:26;;;;;;;1.8;1.2;;;;;;;23.81;39.10254;93861.16;;;;
2024/01/04 01:04:26;;;;;;;1.8;1.2;;;;;;;23.81;39.10254;93861.16;;;;
2024/01/04 01:05:27;;;;;;;1.8;1.2;;;;;;;23.81;39.10254;93861.16;;;;
2024/01/04 01:06:27;;;;;;;1.8;1.2;;;;;;;23.81;39.10254;93861.16;;;;
2024/01/04 01:07:28;;;;;;;1.8;1.2;;;;;;;23.81;39.10254;93861.16;;;;
2024/01/04 01:08:28;;;;;;;1.8;1.2;;;;;;;23.81;39.10254;93861.16;;;;
2024/01/04 01:09:29;;;;;;;1.8;1.2;;;;;;;23.81;39.10254;93861.16;;;;
2024/01/04 01:10:31;;;;;;;1.8;1.2;;;;;;;23.81;39.10254;93861.16;;;;
2024/01/04 01:11:32;;;;;;;1.8;1.2;;;;;;;23.81;39.10254;93861.16;;;;
2024/01/04 01:12:32;;;;;;;1.8;1.2;;;;;;;23.81;39.10254;93861.16;;;;
2024/01/04 01:13:33;;;;;;;1.3;1.2;;;;;;;23.88;38.92871;93873.58;;;;
2024/01/04 01:14:33;;;;;;;1.3;1.2;;;;;;;23.88;38.92871;93873.58;;;;
2024/01/04 01:15:34;;;;;;;1.3;1.2;;;;;;;23.88;38.92871;93873.58;;;;
2024/01/04 01:16:34;;;;;;;1.3;1.2;;;;;;;23.88;38.92871;93873.58;;;;
2024/01/04 01:17:35;;;;;;;1.3;1.2;;;;;;;23.88;38.92871;93873.58;;;;
2024/01/04 01:18:35;;;;;;;1.3;1.2;;;;;;;23.88;38.92871;93873.58;;;;
2024/01/04 01:19:39;;;;;;;1.3;1.2;;;;;;;23.88;38.92871;93873.58;;;;
2024/01/04 01:20:39;;;;;;;1.3;1.2;;;;;;;23.88;38.92871;93873.58;;;;
2024/01/04 01:21:41;;;;;;;1.3;1.2;;;;;;;23.88;38.92871;93873.58;;;;
2024/01/04 01:22:41;;;;;;;1.3;1.2;;;;;;;23.88;38.92871;93873.58;;;;
2024/01/04 01:23:42;;;;;;;1.3;1.2;;;;;;;23.88;38.92871;93873.58;;;;
2024/01/04 01:24:43;;;;;;;2;1.3;;;;;;;23.76;39.1416;93873.52;;;;
2024/01/04 01:25:43;;;;;;;2;1.3;;;;;;;23.76;39.1416;93873.52;;;;
2024/01/04 01:26:44;;;;;;;2;1.3;;;;;;;23.76;39.1416;93873.52;;;;
2024/01/04 01:27:44;;;;;;;2;1.3;;;;;;;23.76;39.1416;93873.52;;;;
2024/01/04 01:28:45;;;;;;;2;1.3;;;;;;;23.76;39.1416;93873.52;;;;
2024/01/04 01:29:45;;;;;;;2;1.3;;;;;;;23.76;39.1416;93873.52;;;;
2024/01/04 01:30:45;;;;;;;2;1.3;;;;;;;23.76;39.1416;93873.52;;;;
2024/01/04 01:31:46;;;;;;;2;1.3;;;;;;;23.76;39.1416;93873.52;;;;
2024/01/04 01:32:46;;;;;;;2;1.3;;;;;;;23.76;39.1416;93873.52;;;;
2024/01/04 01:33:47;;;;;;;2;1.3;;;;;;;23.76;39.1416;93873.52;;;;
2024/01/04 01:34:47;;;;;;;1.4;1.3;;;;;;;23.66;39.26855;93881.59;;;;
2024/01/04 01:35:48;;;;;;;1.4;1.3;;;;;;;23.66;39.26855;93881.59;;;;
2024/01/04 01:36:48;;;;;;;1.4;1.3;;;;;;;23.66;39.26855;93881.59;;;;
2024/01/04 01:37:49;;;;;;;1.4;1.3;;;;;;;23.66;39.26855;93881.59;;;;
2024/01/04 01:38:49;;;;;;;1.4;1.3;;;;;;;23.66;39.26855;93881.59;;;;
2024/01/04 01:39:49;;;;;;;1.4;1.3;;;;;;;23.66;39.26855;93881.59;;;;
2024/01/04 01:40:50;;;;;;;1.4;1.3;;;;;;;23.66;39.26855;93881.59;;;;
2024/01/04 01:41:51;;;;;;;1.4;1.3;;;;;;;23.66;39.26855;93881.59;;;;
2024/01/04 01:42:52;;;;;;;1.4;1.3;;;;;;;23.66;39.26855;93881.59;;;;
2024/01/04 01:43:53;;;;;;;1.4;1.3;;;;;;;23.66;39.26855;93881.59;;;;
2024/01/04 01:44:53;;;;;;;1.4;1.3;;;;;;;23.66;39.26855;93881.59;;;;
2024/01/04 01:45:54;;;;;;;1.25;1.15;;;;;;;23.37;39.86914;93877.15;;;;
2024/01/04 01:46:54;;;;;;;1.25;1.15;;;;;;;23.37;39.86914;93877.15;;;;
2024/01/04 01:47:55;;;;;;;1.25;1.15;;;;;;;23.37;39.86914;93877.15;;;;
2024/01/04 01:48:56;;;;;;;1.25;1.15;;;;;;;23.37;39.86914;93877.15;;;;
2024/01/04 01:49:56;;;;;;;1.25;1.15;;;;;;;23.37;39.86914;93877.15;;;;
2024/01/04 01:50:57;;;;;;;1.25;1.15;;;;;;;23.37;39.86914;93877.15;;;;
2024/01/04 01:51:58;;;;;;;1.25;1.15;;;;;;;23.37;39.86914;93877.15;;;;
2024/01/04 01:52:59;;;;;;;1.25;1.15;;;;;;;23.37;39.86914;93877.15;;;;
2024/01/04 01:54:00;;;;;;;1.25;1.15;;;;;;;23.37;39.86914;93877.15;;;;
2024/01/04 01:55:00;;;;;;;1.25;1.15;;;;;;;23.37;39.86914;93877.15;;;;
2024/01/04 01:56:03;;;;;;;1.55;1.2;;;;;;;23.2;40.13379;93888.01;;;;
2024/01/04 01:57:05;;;;;;;1.55;1.2;;;;;;;23.2;40.13379;93888.01;;;;
2024/01/04 01:58:05;;;;;;;1.55;1.2;;;;;;;23.2;40.13379;93888.01;;;;
2024/01/04 01:59:06;;;;;;;1.55;1.2;;;;;;;23.2;40.13379;93888.01;;;;
2024/01/04 02:00:07;;;;;;;1.55;1.2;;;;;;;23.2;40.13379;93888.01;;;;
2024/01/04 02:01:10;;;;;;;1.55;1.2;;;;;;;23.2;40.13379;93888.01;;;;
2024/01/04 02:02:10;;;;;;;1.55;1.2;;;;;;;23.2;40.13379;93888.01;;;;
2024/01/04 02:03:11;;;;;;;1.55;1.2;;;;;;;23.2;40.13379;93888.01;;;;
2024/01/04 02:04:13;;;;;;;1.55;1.2;;;;;;;23.2;40.13379;93888.01;;;;
2024/01/04 02:05:13;;;;;;;1.55;1.2;;;;;;;23.2;40.13379;93888.01;;;;
2024/01/04 02:06:14;;;;;;;1.55;1.2;;;;;;;23.2;40.13379;93888.01;;;;
2024/01/04 02:07:15;;;;;;;1.55;1.2;;;;;;;23.2;40.13379;93888.01;;;;
2024/01/04 02:08:15;;;;;;;1.55;1.2;;;;;;;23.2;40.13379;93888.01;;;;
2024/01/04 02:09:16;;;;;;;1.55;1.2;;;;;;;23.2;40.13379;93888.01;;;;
2024/01/04 02:10:17;;;;;;;1.55;1.2;;;;;;;23.2;40.13379;93888.01;;;;
2024/01/04 02:11:17;;;;;;;1.55;1.2;;;;;;;23.2;40.13379;93888.01;;;;
2024/01/04 02:12:18;;;;;;;1.55;1.2;;;;;;;23.2;40.13379;93888.01;;;;
2024/01/04 02:13:18;;;;;;;1.55;1.2;;;;;;;23.2;40.13379;93888.01;;;;
2024/01/04 02:14:19;;;;;;;1.55;1.2;;;;;;;23.2;40.13379;93888.01;;;;
2024/01/04 02:15:19;;;;;;;1.55;1.2;;;;;;;23.2;40.13379;93888.01;;;;
2024/01/04 02:16:20;;;;;;;1.55;1.2;;;;;;;23.2;40.13379;93888.01;;;;
2024/01/04 02:17:21;;;;;;;1.55;1.2;;;;;;;23.2;40.13379;93888.01;;;;
2024/01/04 02:18:22;;;;;;;1.3;1.2;;;;;;;23.64;39.2207;93907.31;;;;
2024/01/04 02:19:23;;;;;;;1.3;1.2;;;;;;;23.64;39.2207;93907.31;;;;
2024/01/04 02:20:24;;;;;;;1.3;1.2;;;;;;;23.64;39.2207;93907.31;;;;
2024/01/04 02:21:24;;;;;;;1.3;1.2;;;;;;;23.64;39.2207;93907.31;;;;
2024/01/04 02:22:25;;;;;;;1.3;1.2;;;;;;;23.64;39.2207;93907.31;;;;
2024/01/04 02:23:25;;;;;;;1.3;1.2;;;;;;;23.64;39.2207;93907.31;;;;
2024/01/04 02:24:26;;;;;;;1.3;1.2;;;;;;;23.64;39.2207;93907.31;;;;
2024/01/04 02:25:26;;;;;;;1.3;1.2;;;;;;;23.64;39.2207;93907.31;;;;
2024/01/04 02:26:27;;;;;;;1.3;1.2;;;;;;;23.64;39.2207;93907.31;;;;
2024/01/04 02:27:27;;;;;;;1.3;1.2;;;;;;;23.64;39.2207;93907.31;;;;
2024/01/04 02:28:28;;;;;;;1.2;1.1;;;;;;;23.64;39.19824;93890.97;;;;
2024/01/04 02:29:28;;;;;;;1.2;1.1;;;;;;;23.64;39.19824;93890.97;;;;
2024/01/04 02:30:29;;;;;;;1.2;1.1;;;;;;;23.64;39.19824;93890.97;;;;
2024/01/04 02:31:29;;;;;;;1.2;1.1;;;;;;;23.64;39.19824;93890.97;;;;
2024/01/04 02:32:30;;;;;;;1.2;1.1;;;;;;;23.64;39.19824;93890.97;;;;
2024/01/04 02:33:30;;;;;;;1.2;1.1;;;;;;;23.64;39.19824;93890.97;;;;
2024/01/04 02:34:31;;;;;;;1.2;1.1;;;;;;;23.64;39.19824;93890.97;;;;
2024/01/04 02:35:31;;;;;;;1.2;1.1;;;;;;;23.64;39.19824;93890.97;;;;
2024/01/04 02:36:32;;;;;;;1.2;1.1;;;;;;;23.64;39.19824;93890.97;;;;
2024/01/04 02:37:32;;;;;;;1.2;1.1;;;;;;;23.64;39.19824;93890.97;;;;
2024/01/04 02:38:32;;;;;;;1.2;1.1;;;;;;;23.64;39.19824;93890.97;;;;
2024/01/04 02:39:33;;;;;;;1.3;1.15;;;;;;;23.58;39.22754;93887.84;;;;
2024/01/04 02:40:33;;;;;;;1.3;1.15;;;;;;;23.58;39.22754;93887.84;;;;
2024/01/04 02:41:34;;;;;;;1.3;1.15;;;;;;;23.58;39.22754;93887.84;;;;
2024/01/04 02:42:35;;;;;;;1.3;1.15;;;;;;;23.58;39.22754;93887.84;;;;
2024/01/04 02:43:35;;;;;;;1.3;1.15;;;;;;;23.58;39.22754;93887.84;;;;
2024/01/04 02:44:36;;;;;;;1.3;1.15;;;;;;;23.58;39.22754;93887.84;;;;
2024/01/04 02:45:36;;;;;;;1.3;1.15;;;;;;;23.58;39.22754;93887.84;;;;
2024/01/04 02:46:37;;;;;;;1.3;1.15;;;;;;;23.58;39.22754;93887.84;;;;
2024/01/04 02:47:37;;;;;;;1.3;1.15;;;;;;;23.58;39.22754;93887.84;;;;
2024/01/04 02:48:37;;;;;;;1.3;1.15;;;;;;;23.58;39.22754;93887.84;;;;
2024/01/04 02:49:38;;;;;;;1;1;;;;;;;23.6;39.19434;93898.3;;;;
2024/01/04 02:50:39;;;;;;;1;1;;;;;;;23.6;39.19434;93898.3;;;;
2024/01/04 02:51:39;;;;;;;1;1;;;;;;;23.6;39.19434;93898.3;;;;
2024/01/04 02:52:40;;;;;;;1;1;;;;;;;23.6;39.19434;93898.3;;;;
2024/01/04 02:53:40;;;;;;;1;1;;;;;;;23.6;39.19434;93898.3;;;;
2024/01/04 02:54:41;;;;;;;1;1;;;;;;;23.6;39.19434;93898.3;;;;
2024/01/04 02:55:41;;;;;;;1;1;;;;;;;23.6;39.19434;93898.3;;;;
2024/01/04 02:56:42;;;;;;;1;1;;;;;;;23.6;39.19434;93898.3;;;;
2024/01/04 02:57:42;;;;;;;1;1;;;;;;;23.6;39.19434;93898.3;;;;
2024/01/04 02:58:45;;;;;;;1;1;;;;;;;23.6;39.19434;93898.3;;;;
2024/01/04 02:59:45;;;;;;;1;1;;;;;;;23.6;39.19434;93898.3;;;;
2024/01/04 03:00:46;;;;;;;1.2;1.1;;;;;;;23.55;39.24609;93890.39;;;;
2024/01/04 03:01:48;;;;;;;1.2;1.1;;;;;;;23.55;39.24609;93890.39;;;;
2024/01/04 03:02:49;;;;;;;1.2;1.1;;;;;;;23.55;39.24609;93890.39;;;;
2024/01/04 03:03:51;;;;;;;1.2;1.1;;;;;;;23.55;39.24609;93890.39;;;;
2024/01/04 03:04:52;;;;;;;1.2;1.1;;;;;;;23.55;39.24609;93890.39;;;;
2024/01/04 03:05:54;;;;;;;1.2;1.1;;;;;;;23.55;39.24609;93890.39;;;;
2024/01/04 03:06:54;;;;;;;1.2;1.1;;;;;;;23.55;39.24609;93890.39;;;;
2024/01/04 03:07:55;;;;;;;1.2;1.1;;;;;;;23.55;39.24609;93890.39;;;;
2024/01/04 03:08:55;;;;;;;1.2;1.1;;;;;;;23.55;39.24609;93890.39;;;;
2024/01/04 03:09:56;;;;;;;1.2;1.1;;;;;;;23.55;39.24609;93890.39;;;;
2024/01/04 03:10:57;;;;;;;1;1;;;;;;;23.21;39.93262;93902.12;;;;
2024/01/04 03:11:57;;;;;;;1;1;;;;;;;23.21;39.93262;93902.12;;;;
2024/01/04 03:12:57;;;;;;;1;1;;;;;;;23.21;39.93262;93902.12;;;;
2024/01/04 03:13:58;;;;;;;1;1;;;;;;;23.21;39.93262;93902.12;;;;
2024/01/04 03:14:59;;;;;;;1;1;;;;;;;23.21;39.93262;93902.12;;;;
2024/01/04 03:16:00;;;;;;;1;1;;;;;;;23.21;39.93262;93902.12;;;;
2024/01/04 03:17:00;;;;;;;1;1;;;;;;;23.21;39.93262;93902.12;;;;
2024/01/04 03:18:01;;;;;;;1;1;;;;;;;23.21;39.93262;93902.12;;;;
2024/01/04 03:19:01;;;;;;;1;1;;;;;;;23.21;39.93262;93902.12;;;;
2024/01/04 03:20:01;;;;;;;1;1;;;;;;;23.21;39.93262;93902.12;;;;
2024/01/04 03:21:03;;;;;;;1;1;;;;;;;23.21;39.93262;93902.12;;;;
2024/01/04 03:22:04;;;;;;;1.2;1.1;;;;;;;23.57;39.1709;93877.77;;;;
2024/01/04 03:23:05;;;;;;;1.2;1.1;;;;;;;23.57;39.1709;93877.77;;;;
2024/01/04 03:24:05;;;;;;;1.2;1.1;;;;;;;23.57;39.1709;93877.77;;;;
2024/01/04 03:25:07;;;;;;;1.2;1.1;;;;;;;23.57;39.1709;93877.77;;;;
2024/01/04 03:26:08;;;;;;;1.2;1.1;;;;;;;23.57;39.1709;93877.77;;;;
2024/01/04 03:27:12;;;;;;;1.2;1.1;;;;;;;23.57;39.1709;93877.77;;;;
2024/01/04 03:28:12;;;;;;;1.2;1.1;;;;;;;23.57;39.1709;93877.77;;;;
2024/01/04 03:29:13;;;;;;;1.2;1.1;;;;;;;23.57;39.1709;93877.77;;;;
2024/01/04 03:30:13;;;;;;;1.2;1.1;;;;;;;23.57;39.1709;93877.77;;;;
2024/01/04 03:31:14;;;;;;;1.2;1.1;;;;;;;23.57;39.1709;93877.77;;;;
2024/01/04 03:32:15;;;;;;;1.2;1.1;;;;;;;23.57;39.1709;93877.77;;;;
2024/01/04 03:33:15;;;;;;;1.4;1.1;;;;;;;23.59;39.10449;93896.73;;;;
2024/01/04 03:34:16;;;;;;;1.4;1.1;;;;;;;23.59;39.10449;93896.73;;;;
2024/01/04 03:35:16;;;;;;;1.4;1.1;;;;;;;23.59;39.10449;93896.73;;;;
2024/01/04 03:36:17;;;;;;;1.4;1.1;;;;;;;23.59;39.10449;93896.73;;;;
2024/01/04 03:37:17;;;;;;;1.4;1.1;;;;;;;23.59;39.10449;93896.73;;;;
2024/01/04 03:38:18;;;;;;;1.4;1.1;;;;;;;23.59;39.10449;93896.73;;;;
2024/01/04 03:39:18;;;;;;;1.4;1.1;;;;;;;23.59;39.10449;93896.73;;;;
2024/01/04 03:40:19;;;;;;;1.4;1.1;;;;;;;23.59;39.10449;93896.73;;;;
2024/01/04 03:41:21;;;;;;;1.4;1.1;;;;;;;23.59;39.10449;93896.73;;;;
2024/01/04 03:42:21;;;;;;;1.4;1.1;;;;;;;23.59;39.10449;93896.73;;;;
2024/01/04 03:43:21;;;;;;;1.2;1;;;;;;;23.51;39.23145;93906.98;;;;
2024/01/04 03:44:22;;;;;;;1.2;1;;;;;;;23.51;39.23145;93906.98;;;;
2024/01/04 03:45:23;;;;;;;1.2;1;;;;;;;23.51;39.23145;93906.98;;;;
2024/01/04 03:46:23;;;;;;;1.2;1;;;;;;;23.51;39.23145;93906.98;;;;
2024/01/04 03:47:24;;;;;;;1.2;1;;;;;;;23.51;39.23145;93906.98;;;;
2024/01/04 03:48:24;;;;;;;1.2;1;;;;;;;23.51;39.23145;93906.98;;;;
2024/01/04 03:49:25;;;;;;;1.2;1;;;;;;;23.51;39.23145;93906.98;;;;
2024/01/04 03:50:25;;;;;;;1.2;1;;;;;;;23.51;39.23145;93906.98;;;;
2024/01/04 03:51:26;;;;;;;1.2;1;;;;;;;23.51;39.23145;93906.98;;;;
2024/01/04 03:52:26;;;;;;;1.2;1;;;;;;;23.51;39.23145;93906.98;;;;
2024/01/04 03:53:27;;;;;;;1.2;1;;;;;;;23.51;39.23145;93906.98;;;;
2024/01/04 03:54:27;;;;;;;1.2;1.1;;;;;;;23.63;38.99609;93903.44;;;;
2024/01/04 03:55:28;;;;;;;1.2;1.1;;;;;;;23.63;38.99609;93903.44;;;;
2024/01/04 03:56:28;;;;;;;1.2;1.1;;;;;;;23.63;38.99609;93903.44;;;;
2024/01/04 03:57:29;;;;;;;1.2;1.1;;;;;;;23.63;38.99609;93903.44;;;;
2024/01/04 03:58:29;;;;;;;1.2;1.1;;;;;;;23.63;38.99609;93903.44;;;;
2024/01/04 03:59:30;;;;;;;1.2;1.1;;;;;;;23.63;38.99609;93903.44;;;;
2024/01/04 04:00:30;;;;;;;1.2;1.1;;;;;;;23.63;38.99609;93903.44;;;;
2024/01/04 04:01:31;;;;;;;1.2;1.1;;;;;;;23.63;38.99609;93903.44;;;;
2024/01/04 04:02:31;;;;;;;1.2;1.1;;;;;;;23.63;38.99609;93903.44;;;;
2024/01/04 04:03:32;;;;;;;1.2;1.1;;;;;;;23.63;38.99609;93903.44;;;;
2024/01/04 04:04:32;;;;;;;0.95;0.95;;;;;;;23.76;38.69336;93917.26;;;;
2024/01/04 04:05:32;;;;;;;0.95;0.95;;;;;;;23.76;38.69336;93917.26;;;;
2024/01/04 04:06:33;;;;;;;0.95;0.95;;;;;;;23.76;38.69336;93917.26;;;;
2024/01/04 04:07:34;;;;;;;0.95;0.95;;;;;;;23.76;38.69336;93917.26;;;;
2024/01/04 04:08:35;;;;;;;0.95;0.95;;;;;;;23.76;38.69336;93917.26;;;;
2024/01/04 04:09:35;;;;;;;0.95;0.95;;;;;;;23.76;38.69336;93917.26;;;;
2024/01/04 04:10:36;;;;;;;0.95;0.95;;;;;;;23.76;38.69336;93917.26;;;;
2024/01/04 04:11:36;;;;;;;0.95;0.95;;;;;;;23.76;38.69336;93917.26;;;;
2024/01/04 04:12:37;;;;;;;0.95;0.95;;;;;;;23.76;38.69336;93917.26;;;;
2024/01/04 04:13:37;;;;;;;0.95;0.95;;;;;;;23.76;38.69336;93917.26;;;;
2024/01/04 04:14:38;;;;;;;0.95;0.95;;;;;;;23.76;38.69336;93917.26;;;;
2024/01/04 04:15:38;;;;;;;1;1;;;;;;;23.76;38.6709;93929.41;;;;
2024/01/04 04:16:39;;;;;;;1;1;;;;;;;23.76;38.6709;93929.41;;;;
2024/01/04 04:17:39;;;;;;;1;1;;;;;;;23.76;38.6709;93929.41;;;;
2024/01/04 04:18:40;;;;;;;1;1;;;;;;;23.76;38.6709;93929.41;;;;
2024/01/04 04:19:40;;;;;;;1;1;;;;;;;23.76;38.6709;93929.41;;;;
2024/01/04 04:20:41;;;;;;;1;1;;;;;;;23.76;38.6709;93929.41;;;;
2024/01/04 04:21:42;;;;;;;1;1;;;;;;;23.76;38.6709;93929.41;;;;
2024/01/04 04:22:43;;;;;;;1;1;;;;;;;23.76;38.6709;93929.41;;;;
2024/01/04 04:23:47;;;;;;;1;1;;;;;;;23.76;38.6709;93929.41;;;;
2024/01/04 04:24:48;;;;;;;1;1;;;;;;;23.76;38.6709;93929.41;;;;
2024/01/04 04:25:48;;;;;;;1;1;;;;;;;23.76;38.6709;93929.41;;;;
2024/01/04 04:26:49;;;;;;;1.05;1.05;;;;;;;23.75;38.65918;93936.88;;;;
2024/01/04 04:27:49;;;;;;;1.05;1.05;;;;;;;23.75;38.65918;93936.88;;;;
2024/01/04 04:28:50;;;;;;;1.05;1.05;;;;;;;23.75;38.65918;93936.88;;;;
2024/01/04 04:29:51;;;;;;;1.05;1.05;;;;;;;23.75;38.65918;93936.88;;;;
2024/01/04 04:30:52;;;;;;;1.05;1.05;;;;;;;23.75;38.65918;93936.88;;;;
2024/01/04 04:31:52;;;;;;;1.05;1.05;;;;;;;23.75;38.65918;93936.88;;;;
2024/01/04 04:32:53;;;;;;;1.05;1.05;;;;;;;23.75;38.65918;93936.88;;;;
2024/01/04 04:33:54;;;;;;;1.05;1.05;;;;;;;23.75;38.65918;93936.88;;;;
2024/01/04 04:34:54;;;;;;;1.05;1.05;;;;;;;23.75;38.65918;93936.88;;;;
2024/01/04 04:35:55;;;;;;;1.05;1.05;;;;;;;23.75;38.65918;93936.88;;;;
2024/01/04 04:36:55;;;;;;;1.1;1;;;;;;;23.72;38.72363;93935.21;;;;
2024/01/04 04:37:56;;;;;;;1.1;1;;;;;;;23.72;38.72363;93935.21;;;;
2024/01/04 04:39:00;;;;;;;1.1;1;;;;;;;23.72;38.72363;93935.21;;;;
2024/01/04 04:40:01;;;;;;;1.1;1;;;;;;;23.72;38.72363;93935.21;;;;
2024/01/04 04:41:01;;;;;;;1.1;1;;;;;;;23.72;38.72363;93935.21;;;;
2024/01/04 04:42:03;;;;;;;1.1;1;;;;;;;23.72;38.72363;93935.21;;;;
2024/01/04 04:43:04;;;;;;;1.1;1;;;;;;;23.72;38.72363;93935.21;;;;
2024/01/04 04:44:04;;;;;;;1.1;1;;;;;;;23.72;38.72363;93935.21;;;;
2024/01/04 04:45:05;;;;;;;1.1;1;;;;;;;23.72;38.72363;93935.21;;;;
2024/01/04 04:46:09;;;;;;;1.1;1;;;;;;;23.72;38.72363;93935.21;;;;
2024/01/04 04:47:12;;;;;;;1.1;1;;;;;;;23.72;38.72363;93935.21;;;;
2024/01/04 04:48:12;;;;;;;1.2;1.1;;;;;;;23.74;38.64648;93932.58;;;;
2024/01/04 04:49:13;;;;;;;1.2;1.1;;;;;;;23.74;38.64648;93932.58;;;;
2024/01/04 04:50:13;;;;;;;1.2;1.1;;;;;;;23.74;38.64648;93932.58;;;;
2024/01/04 04:51:14;;;;;;;1.2;1.1;;;;;;;23.74;38.64648;93932.58;;;;
2024/01/04 04:52:15;;;;;;;1.2;1.1;;;;;;;23.74;38.64648;93932.58;;;;
2024/01/04 04:53:15;;;;;;;1.2;1.1;;;;;;;23.74;38.64648;93932.58;;;;
2024/01/04 04:54:16;;;;;;;1.2;1.1;;;;;;;23.74;38.64648;93932.58;;;;
2024/01/04 04:55:17;;;;;;;1.2;1.1;;;;;;;23.74;38.64648;93932.58;;;;
2024/01/04 04:56:17;;;;;;;1.2;1.1;;;;;;;23.74;38.64648;93932.58;;;;
2024/01/04 04:57:18;;;;;;;1.2;1.1;;;;;;;23.74;38.64648;93932.58;;;;
2024/01/04 04:58:18;;;;;;;1.2;1.1;;;;;;;23.74;38.64648;93932.58;;;;
2024/01/04 04:59:19;;;;;;;1.2;1.1;;;;;;;23.74;38.64648;93932.58;;;;
2024/01/04 05:00:19;;;;;;;1.2;1.1;;;;;;;23.74;38.64648;93932.58;;;;
2024/01/04 05:01:20;;;;;;;1.2;1.1;;;;;;;23.74;38.64648;93932.58;;;;
2024/01/04 05:02:21;;;;;;;1.2;1.1;;;;;;;23.74;38.64648;93932.58;;;;
2024/01/04 05:03:21;;;;;;;1.2;1.1;;;;;;;23.74;38.64648;93932.58;;;;
2024/01/04 05:04:22;;;;;;;1.2;1.1;;;;;;;23.74;38.64648;93932.58;;;;
2024/01/04 05:05:23;;;;;;;1.2;1.1;;;;;;;23.74;38.64648;93932.58;;;;
2024/01/04 05:06:23;;;;;;;1.2;1.1;;;;;;;23.74;38.64648;93932.58;;;;
2024/01/04 05:07:24;;;;;;;1.2;1.1;;;;;;;23.74;38.64648;93932.58;;;;
2024/01/04 05:08:24;;;;;;;1.2;1.1;;;;;;;23.74;38.64648;93932.58;;;;
2024/01/04 05:09:25;;;;;;;1.1;1.05;;;;;;;23.7;38.72266;93989.12;;;;
2024/01/04 05:10:25;;;;;;;1.1;1.05;;;;;;;23.7;38.72266;93989.12;;;;
2024/01/04 05:11:26;;;;;;;1.1;1.05;;;;;;;23.7;38.72266;93989.12;;;;
2024/01/04 05:12:31;;;;;;;1.1;1.05;;;;;;;23.7;38.72266;93989.12;;;;
2024/01/04 05:13:31;;;;;;;1.1;1.05;;;;;;;23.7;38.72266;93989.12;;;;
2024/01/04 05:14:32;;;;;;;1.1;1.05;;;;;;;23.7;38.72266;93989.12;;;;
2024/01/04 05:15:33;;;;;;;1.1;1.05;;;;;;;23.7;38.72266;93989.12;;;;
2024/01/04 05:16:34;;;;;;;1.1;1.05;;;;;;;23.7;38.72266;93989.12;;;;
2024/01/04 05:17:34;;;;;;;1.1;1.05;;;;;;;23.7;38.72266;93989.12;;;;
2024/01/04 05:18:35;;;;;;;1.1;1.05;;;;;;;23.7;38.72266;93989.12;;;;
2024/01/04 05:19:35;;;;;;;1.1;1;;;;;;;23.7;38.68848;94000.49;;;;
2024/01/04 05:20:36;;;;;;;1.1;1;;;;;;;23.7;38.68848;94000.49;;;;
2024/01/04 05:21:36;;;;;;;1.1;1;;;;;;;23.7;38.68848;94000.49;;;;
2024/01/04 05:22:37;;;;;;;1.1;1;;;;;;;23.7;38.68848;94000.49;;;;
2024/01/04 05:23:38;;;;;;;1.1;1;;;;;;;23.7;38.68848;94000.49;;;;
2024/01/04 05:24:38;;;;;;;1.1;1;;;;;;;23.7;38.68848;94000.49;;;;
2024/01/04 05:25:39;;;;;;;1.1;1;;;;;;;23.7;38.68848;94000.49;;;;
2024/01/04 05:26:40;;;;;;;1.1;1;;;;;;;23.7;38.68848;94000.49;;;;
2024/01/04 05:27:40;;;;;;;1.1;1;;;;;;;23.7;38.68848;94000.49;;;;
2024/01/04 05:28:41;;;;;;;1.1;1;;;;;;;23.7;38.68848;94000.49;;;;
2024/01/04 05:29:41;;;;;;;1.1;1;;;;;;;23.7;38.68848;94000.49;;;;
2024/01/04 05:30:42;;;;;;;1.1;1.1;;;;;;;23.48;39.12891;94008.26;;;;
2024/01/04 05:31:42;;;;;;;1.1;1.1;;;;;;;23.48;39.12891;94008.26;;;;
2024/01/04 05:32:43;;;;;;;1.1;1.1;;;;;;;23.48;39.12891;94008.26;;;;
2024/01/04 05:33:43;;;;;;;1.1;1.1;;;;;;;23.48;39.12891;94008.26;;;;
2024/01/04 05:34:44;;;;;;;1.1;1.1;;;;;;;23.48;39.12891;94008.26;;;;
2024/01/04 05:35:45;;;;;;;1.1;1.1;;;;;;;23.48;39.12891;94008.26;;;;
2024/01/04 05:36:46;;;;;;;1.1;1.1;;;;;;;23.48;39.12891;94008.26;;;;
2024/01/04 05:37:46;;;;;;;1.1;1.1;;;;;;;23.48;39.12891;94008.26;;;;
2024/01/04 05:38:47;;;;;;;1.1;1.1;;;;;;;23.48;39.12891;94008.26;;;;
2024/01/04 05:39:47;;;;;;;1.1;1.1;;;;;;;23.48;39.12891;94008.26;;;;
2024/01/04 05:40:48;;;;;;;1.1;1.1;;;;;;;23.48;39.12891;94008.26;;;;
2024/01/04 05:41:48;;;;;;;1;1;;;;;;;23.72;38.62305;94016.99;;;;
2024/01/04 05:42:49;;;;;;;1;1;;;;;;;23.72;38.62305;94016.99;;;;
2024/01/04 05:43:49;;;;;;;1;1;;;;;;;23.72;38.62305;94016.99;;;;
2024/01/04 05:44:50;;;;;;;1;1;;;;;;;23.72;38.62305;94016.99;;;;
2024/01/04 05:45:50;;;;;;;1;1;;;;;;;23.72;38.62305;94016.99;;;;
2024/01/04 05:46:51;;;;;;;1;1;;;;;;;23.72;38.62305;94016.99;;;;
2024/01/04 05:47:51;;;;;;;1;1;;;;;;;23.72;38.62305;94016.99;;;;
2024/01/04 05:48:52;;;;;;;1;1;;;;;;;23.72;38.62305;94016.99;;;;
2024/01/04 05:49:52;;;;;;;1;1;;;;;;;23.72;38.62305;94016.99;;;;
2024/01/04 05:50:53;;;;;;;1;1;;;;;;;23.72;38.62305;94016.99;;;;
2024/01/04 05:51:53;;;;;;;1.1;1;;;;;;;23.6;38.83691;94043.84;;;;
2024/01/04 05:52:54;;;;;;;1.1;1;;;;;;;23.6;38.83691;94043.84;;;;
2024/01/04 05:53:54;;;;;;;1.1;1;;;;;;;23.6;38.83691;94043.84;;;;
2024/01/04 05:54:55;;;;;;;1.1;1;;;;;;;23.6;38.83691;94043.84;;;;
2024/01/04 05:55:55;;;;;;;1.1;1;;;;;;;23.6;38.83691;94043.84;;;;
2024/01/04 05:56:55;;;;;;;1.1;1;;;;;;;23.6;38.83691;94043.84;;;;